createdAt,value
2023-03-31T00:02:06.793Z,78.71
2023-03-31T00:04:52.028Z,78.17
2023-03-31T00:07:37.246Z,77.18
2023-03-31T00:10:22.753Z,77.41
2023-03-31T00:13:08.066Z,77.21
2023-03-31T00:15:57.648Z,77.77
2023-03-31T00:18:42.834Z,77.59
2023-03-31T00:21:28.796Z,77.52
2023-03-31T00:24:15.693Z,79.17
2023-03-31T00:27:05.239Z,79.79
2023-03-31T00:29:51.221Z,79.71
2023-03-31T00:32:36.563Z,79.16
2023-03-31T00:35:21.959Z,79.17
2023-03-31T00:38:07.455Z,79.99
2023-03-31T00:40:53.906Z,79.82
2023-03-31T00:43:39.353Z,79.21
2023-03-31T00:46:33.810Z,79.78
2023-03-31T00:49:29.976Z,79.97
2023-03-31T00:52:19.304Z,78.65
2023-03-31T00:55:10.070Z,78.35
2023-03-31T00:57:56.362Z,79.46
2023-03-31T01:00:42.432Z,79.84
2023-03-31T01:03:29.465Z,81.00
2023-03-31T01:06:17.549Z,80.61
2023-03-31T01:09:03.512Z,79.75
2023-03-31T01:11:48.741Z,79.52
2023-03-31T01:14:35.648Z,79.61
2023-03-31T01:17:22.793Z,78.70
2023-03-31T01:20:34.355Z,78.37
2023-03-31T01:23:57.556Z,79.86
2023-03-31T01:27:01.679Z,79.31
2023-03-31T01:29:49.422Z,79.68
2023-03-31T01:32:37.731Z,80.81
2023-03-31T01:35:44.110Z,80.76
2023-03-31T01:39:07.285Z,79.92
2023-03-31T01:42:21.332Z,79.94
2023-03-31T01:45:12.755Z,80.03
2023-03-31T01:48:07.346Z,79.99
2023-03-31T01:51:03.981Z,80.65
2023-03-31T01:54:38.959Z,80.96
2023-03-31T01:57:41.987Z,79.96
2023-03-31T02:00:33.103Z,79.59
2023-03-31T02:03:24.288Z,79.73
2023-03-31T02:06:16.146Z,80.56
2023-03-31T02:09:06.670Z,79.95
2023-03-31T02:11:53.791Z,79.32
2023-03-31T02:14:43.302Z,80.45
2023-03-31T02:17:29.018Z,79.70
2023-03-31T02:20:20.046Z,79.24
2023-03-31T02:23:05.570Z,78.91
2023-03-31T02:25:53.743Z,79.43
2023-03-31T02:28:40.650Z,79.08
2023-03-31T02:31:31.610Z,80.15
2023-03-31T02:34:16.944Z,80.60
2023-03-31T02:37:02.528Z,80.70
2023-03-31T02:39:52.062Z,79.60
2023-03-31T02:42:39.648Z,79.18
2023-03-31T02:45:37.296Z,80.03
2023-03-31T02:48:47.100Z,80.11
2023-03-31T02:52:01.025Z,80.23
2023-03-31T02:55:10.191Z,81.25
2023-03-31T02:58:08.942Z,81.56
2023-03-31T03:01:11.312Z,81.99
2023-03-31T03:04:27.274Z,82.01
2023-03-31T03:07:12.802Z,83.38
2023-03-31T03:10:14.644Z,84.20
2023-03-31T03:13:21.525Z,83.51
2023-03-31T03:16:24.915Z,85.57
2023-03-31T03:19:21.997Z,86.52
2023-03-31T03:22:09.180Z,86.57
2023-03-31T03:24:54.772Z,86.64
2023-03-31T03:27:40.929Z,87.21
2023-03-31T03:30:26.593Z,87.67
2023-03-31T03:33:13.097Z,87.39
2023-03-31T03:35:59.643Z,87.63
2023-03-31T03:38:45.099Z,87.69
2023-03-31T03:41:30.731Z,86.25
2023-03-31T03:44:16.266Z,86.89
2023-03-31T03:47:02.105Z,86.65
2023-03-31T03:49:47.182Z,87.80
2023-03-31T03:52:32.861Z,86.84
2023-03-31T03:55:17.996Z,87.46
2023-03-31T03:58:03.609Z,88.05
2023-03-31T04:00:48.987Z,87.35
2023-03-31T04:03:34.266Z,87.88
2023-03-31T04:06:19.622Z,88.16
2023-03-31T04:09:04.988Z,87.12
2023-03-31T04:11:50.256Z,86.27
2023-03-31T04:14:35.398Z,85.66
2023-03-31T04:17:20.573Z,84.95
2023-03-31T04:20:08.715Z,84.65
2023-03-31T04:22:54.171Z,83.50
2023-03-31T04:25:39.393Z,83.52
2023-03-31T04:28:24.488Z,82.97
2023-03-31T04:31:10.755Z,83.20
2023-03-31T04:33:56.738Z,83.53
2023-03-31T04:36:44.816Z,83.71
2023-03-31T04:39:31.019Z,84.61
2023-03-31T04:42:16.275Z,84.71
2023-03-31T04:45:02.174Z,85.18
2023-03-31T04:47:47.422Z,86.06
2023-03-31T04:50:32.753Z,86.62
2023-03-31T04:53:18.219Z,85.81
2023-03-31T04:56:03.765Z,85.70
2023-03-31T04:58:49.266Z,85.85
2023-03-31T05:01:34.493Z,85.73
2023-03-31T05:04:19.750Z,85.69
2023-03-31T05:07:05.205Z,85.49
2023-03-31T05:09:50.571Z,86.21
2023-03-31T05:12:39.230Z,86.96
2023-03-31T05:15:25.248Z,86.39
2023-03-31T05:18:11.394Z,87.35
2023-03-31T05:20:56.517Z,86.75
2023-03-31T05:23:42.174Z,87.06
2023-03-31T05:26:27.320Z,86.53
2023-03-31T05:29:12.762Z,86.41
2023-03-31T05:31:58.355Z,85.91
2023-03-31T05:34:43.515Z,85.96
2023-03-31T05:37:28.716Z,84.97
2023-03-31T05:40:14.217Z,86.02
2023-03-31T05:42:59.975Z,85.87
2023-03-31T05:45:45.198Z,85.62
2023-03-31T05:48:30.587Z,85.81
2023-03-31T05:51:15.846Z,86.70
2023-03-31T05:54:01.423Z,86.35
2023-03-31T05:56:46.667Z,86.57
2023-03-31T05:59:32.362Z,87.47
2023-03-31T06:02:17.792Z,87.00
2023-03-31T06:05:06.405Z,87.11
2023-03-31T06:07:51.493Z,86.79
2023-03-31T06:10:38.395Z,87.87
2023-03-31T06:13:23.920Z,87.06
2023-03-31T06:16:11.684Z,87.93
2023-03-31T06:18:57.379Z,88.25
2023-03-31T06:21:42.995Z,88.09
2023-03-31T06:24:28.403Z,86.31
2023-03-31T06:27:13.773Z,86.44
2023-03-31T06:29:59.111Z,86.27
2023-03-31T06:32:44.773Z,87.04
2023-03-31T06:35:30.487Z,86.77
2023-03-31T06:38:15.889Z,85.60
2023-03-31T06:41:02.490Z,84.99
2023-03-31T06:43:47.714Z,84.42
2023-03-31T06:46:33.358Z,83.77
2023-03-31T06:49:19.063Z,84.30
2023-03-31T06:52:04.567Z,85.10
2023-03-31T06:54:50.206Z,83.66
2023-03-31T06:57:35.493Z,84.33
2023-03-31T07:00:22.986Z,84.02
2023-03-31T07:03:08.739Z,84.07
2023-03-31T07:05:55.114Z,83.43
2023-03-31T07:08:40.353Z,82.47
2023-03-31T07:11:25.828Z,81.23
2023-03-31T07:14:10.951Z,80.47
2023-03-31T07:16:56.517Z,80.27
2023-03-31T07:19:41.731Z,81.57
2023-03-31T07:22:27.307Z,83.84
2023-03-31T07:25:15.682Z,85.48
2023-03-31T07:28:01.126Z,85.24
2023-03-31T07:30:46.653Z,86.04
2023-03-31T07:33:31.988Z,85.48
2023-03-31T07:36:17.920Z,85.47
2023-03-31T07:39:05.932Z,84.17
2023-03-31T07:41:51.233Z,84.55
2023-03-31T07:44:37.000Z,85.57
2023-03-31T07:47:22.501Z,86.03
2023-03-31T07:50:08.336Z,85.91
2023-03-31T07:52:53.892Z,86.85
2023-03-31T07:55:39.558Z,87.13
2023-03-31T07:58:24.698Z,86.29
2023-03-31T08:01:10.186Z,87.30
2023-03-31T08:03:55.592Z,87.47
2023-03-31T08:06:40.964Z,87.15
2023-03-31T08:09:26.430Z,87.73
2023-03-31T08:12:13.628Z,88.46
2023-03-31T08:14:59.166Z,87.21
2023-03-31T08:17:44.617Z,87.15
2023-03-31T08:20:30.199Z,87.11
2023-03-31T08:23:15.974Z,87.33
2023-03-31T08:26:14.502Z,87.45
2023-03-31T08:29:01.827Z,88.96
2023-03-31T08:31:47.111Z,88.55
2023-03-31T08:34:32.847Z,87.63
2023-03-31T08:37:18.448Z,87.75
2023-03-31T08:40:05.809Z,87.29
2023-03-31T08:42:55.720Z,85.89
2023-03-31T08:45:47.716Z,86.38
2023-03-31T08:48:39.069Z,85.50
2023-03-31T08:51:29.111Z,84.95
2023-03-31T08:54:42.443Z,84.33
2023-03-31T08:57:33.611Z,84.40
2023-03-31T09:00:20.054Z,84.09
2023-03-31T09:03:22.367Z,83.25
2023-03-31T09:06:30.405Z,84.73
2023-03-31T09:09:36.752Z,84.46
2023-03-31T09:12:31.047Z,84.15
2023-03-31T09:15:43.178Z,85.27
2023-03-31T09:18:37.358Z,85.34
2023-03-31T09:21:46.860Z,85.33
2023-03-31T09:24:36.764Z,85.34
2023-03-31T09:27:26.305Z,85.61
2023-03-31T09:30:29.123Z,85.04
2023-03-31T09:33:23.739Z,85.95
2023-03-31T09:36:18.330Z,87.31
2023-03-31T09:39:05.004Z,88.19
2023-03-31T09:41:52.257Z,88.14
2023-03-31T09:44:44.554Z,88.88
2023-03-31T09:47:37.719Z,89.04
2023-03-31T09:50:25.124Z,88.38
2023-03-31T09:53:43.425Z,88.13
2023-03-31T09:56:33.471Z,86.67
2023-03-31T09:59:43.734Z,85.61
2023-03-31T10:02:37.345Z,84.93
2023-03-31T10:05:52.726Z,84.49
2023-03-31T10:08:41.510Z,83.92
2023-03-31T10:11:27.750Z,83.76
2023-03-31T10:14:15.054Z,83.06
2023-03-31T10:17:04.787Z,82.69
2023-03-31T10:20:06.473Z,82.08
2023-03-31T10:22:51.776Z,81.96
2023-03-31T10:25:36.944Z,82.19
2023-03-31T10:28:23.004Z,82.50
2023-03-31T10:31:08.980Z,82.26
2023-03-31T10:33:55.926Z,82.78
2023-03-31T10:36:47.272Z,82.89
2023-03-31T10:39:32.875Z,84.61
2023-03-31T10:42:23.596Z,89.15
2023-03-31T10:45:36.301Z,88.40
2023-03-31T10:48:37.389Z,83.46
2023-03-31T10:51:27.829Z,85.24
2023-03-31T10:54:13.168Z,85.89
2023-03-31T10:57:00.464Z,79.95
2023-03-31T11:00:04.587Z,80.54
2023-03-31T11:03:01.900Z,77.93
2023-03-31T11:06:03.869Z,81.40
2023-03-31T11:08:55.118Z,77.74
2023-03-31T11:12:01.683Z,75.92
2023-03-31T11:14:53.064Z,76.40
2023-03-31T11:17:47.624Z,76.70
2023-03-31T11:20:57.819Z,76.24
2023-03-31T11:24:10.515Z,76.43
2023-03-31T11:27:16.170Z,76.15
2023-03-31T11:30:18.094Z,77.95
2023-03-31T11:33:45.426Z,76.93
2023-03-31T11:36:30.798Z,79.77
2023-03-31T11:39:35.254Z,77.32
2023-03-31T11:42:29.326Z,76.82
2023-03-31T11:45:23.042Z,75.92
2023-03-31T11:48:43.238Z,73.00
2023-03-31T11:51:37.959Z,74.23
2023-03-31T11:54:38.989Z,73.00
2023-03-31T11:57:41.804Z,70.26
2023-03-31T12:00:36.345Z,68.83
2023-03-31T12:03:36.921Z,71.39
2023-03-31T12:06:28.131Z,72.60
2023-03-31T12:09:27.524Z,75.93
2023-03-31T12:12:19.962Z,74.98
2023-03-31T12:15:19.324Z,76.29
2023-03-31T12:18:18.275Z,77.44
2023-03-31T12:21:05.277Z,74.73
2023-03-31T12:23:50.818Z,74.23
2023-03-31T12:26:51.737Z,72.04
2023-03-31T12:29:43.220Z,70.68
2023-03-31T12:32:34.652Z,72.14
2023-03-31T12:35:27.921Z,72.92
2023-03-31T12:38:29.472Z,72.21
2023-03-31T12:41:37.454Z,73.38
2023-03-31T12:44:45.544Z,73.73
2023-03-31T12:47:40.363Z,72.74
2023-03-31T12:50:34.761Z,72.58
2023-03-31T12:53:35.337Z,71.97
2023-03-31T12:56:20.731Z,73.80
2023-03-31T12:59:24.604Z,74.42
2023-03-31T13:02:10.363Z,74.10
2023-03-31T13:04:55.574Z,74.10
2023-03-31T13:07:42.627Z,76.12
2023-03-31T13:10:32.034Z,77.53
2023-03-31T13:13:18.638Z,77.96
2023-03-31T13:16:03.937Z,79.26
2023-03-31T13:18:54.761Z,81.18
2023-03-31T13:22:28.631Z,81.17
2023-03-31T13:25:56.437Z,80.88
2023-03-31T13:28:43.299Z,80.54
2023-03-31T13:32:00.531Z,80.04
2023-03-31T13:34:51.908Z,80.68
2023-03-31T13:38:00.603Z,79.94
2023-03-31T13:40:47.307Z,80.65
2023-03-31T13:44:17.046Z,81.73
2023-03-31T13:47:24.083Z,82.13
2023-03-31T13:50:28.393Z,82.85
2023-03-31T13:53:16.846Z,81.97
2023-03-31T13:56:29.265Z,82.81
2023-03-31T13:59:33.743Z,81.51
2023-03-31T14:02:24.921Z,80.45
2023-03-31T14:05:23.942Z,80.55
2023-03-31T14:08:35.640Z,81.63
2023-03-31T14:11:27.192Z,80.46
2023-03-31T14:14:15.375Z,79.82
2023-03-31T14:17:03.180Z,76.84
2023-03-31T14:20:25.862Z,78.28
2023-03-31T14:23:41.198Z,78.71
2023-03-31T14:26:38.156Z,79.19
2023-03-31T14:29:44.097Z,79.45
2023-03-31T14:32:59.240Z,80.13
2023-03-31T14:36:09.334Z,79.13
2023-03-31T14:39:02.251Z,76.95
2023-03-31T14:41:56.331Z,76.53
2023-03-31T14:44:43.802Z,77.25
2023-03-31T14:47:32.828Z,76.87
2023-03-31T14:50:19.173Z,77.40
2023-03-31T14:53:13.632Z,78.82
2023-03-31T14:56:07.222Z,79.75
2023-03-31T14:58:54.194Z,79.97
2023-03-31T15:01:39.908Z,80.72
2023-03-31T15:04:41.502Z,81.56
2023-03-31T15:07:27.810Z,82.88
2023-03-31T15:10:19.101Z,82.91
2023-03-31T15:13:15.563Z,83.65
2023-03-31T15:16:19.997Z,86.13
2023-03-31T15:19:13.819Z,84.75
2023-03-31T15:21:58.921Z,84.30
2023-03-31T15:24:45.102Z,84.04
2023-03-31T15:27:38.919Z,82.52
2023-03-31T15:30:26.988Z,82.19
2023-03-31T15:33:23.807Z,80.00
2023-03-31T15:36:11.970Z,78.15
2023-03-31T15:38:59.200Z,78.39
2023-03-31T15:41:47.968Z,77.93
2023-03-31T15:44:45.828Z,78.07
2023-03-31T15:47:33.396Z,78.05
2023-03-31T15:50:22.078Z,78.68
2023-03-31T15:53:29.840Z,78.88
2023-03-31T15:56:32.537Z,81.09
2023-03-31T15:59:34.304Z,79.42
2023-03-31T16:02:42.328Z,80.92
2023-03-31T16:05:54.514Z,79.70
2023-03-31T16:08:48.673Z,81.78
2023-03-31T16:11:39.269Z,81.98
2023-03-31T16:14:48.494Z,83.55
2023-03-31T16:17:39.099Z,81.47
2023-03-31T16:20:28.637Z,82.53
2023-03-31T16:23:20.893Z,82.84
2023-03-31T16:26:06.702Z,82.46
2023-03-31T16:28:53.646Z,81.88
2023-03-31T16:31:40.672Z,80.51
2023-03-31T16:34:31.446Z,81.11
2023-03-31T16:37:17.010Z,81.31
2023-03-31T16:40:02.543Z,81.66
2023-03-31T16:42:48.070Z,80.69
2023-03-31T16:45:33.264Z,79.88
2023-03-31T16:48:20.626Z,79.80
2023-03-31T16:51:05.827Z,79.81
2023-03-31T16:53:53.583Z,79.49
2023-03-31T16:56:38.949Z,78.84
2023-03-31T16:59:24.627Z,78.84
2023-03-31T17:02:11.249Z,79.07
2023-03-31T17:05:02.677Z,79.51
2023-03-31T17:07:51.689Z,80.15
2023-03-31T17:10:39.134Z,79.89
2023-03-31T17:13:24.634Z,80.67
2023-03-31T17:16:17.323Z,81.03
2023-03-31T17:19:04.461Z,80.45
2023-03-31T17:21:50.362Z,80.67
2023-03-31T17:24:35.862Z,80.25
2023-03-31T17:27:21.361Z,80.33
2023-03-31T17:30:07.244Z,79.87
2023-03-31T17:32:52.974Z,79.74
2023-03-31T17:35:38.401Z,81.23
2023-03-31T17:38:23.738Z,81.43
2023-03-31T17:41:11.890Z,82.37
2023-03-31T17:43:57.881Z,82.20
2023-03-31T17:46:43.352Z,83.74
2023-03-31T17:49:28.899Z,84.74
2023-03-31T17:52:14.031Z,84.71
2023-03-31T17:54:59.632Z,84.20
2023-03-31T17:57:45.345Z,83.64
2023-03-31T18:00:30.728Z,84.22
2023-03-31T18:03:15.851Z,84.25
2023-03-31T18:06:09.528Z,83.64
2023-03-31T18:08:56.458Z,82.64
2023-03-31T18:11:41.959Z,83.24
2023-03-31T18:14:27.341Z,84.75
2023-03-31T18:17:12.759Z,86.35
2023-03-31T18:19:58.463Z,86.88
2023-03-31T18:22:44.378Z,86.61
2023-03-31T18:25:29.761Z,87.77
2023-03-31T18:28:16.954Z,88.11
2023-03-31T18:31:09.907Z,87.06
2023-03-31T18:33:55.641Z,86.03
2023-03-31T18:36:40.947Z,87.27
2023-03-31T18:39:26.054Z,86.20
2023-03-31T18:42:11.091Z,86.08
2023-03-31T18:44:56.499Z,86.11
2023-03-31T18:47:42.148Z,84.44
2023-03-31T18:50:27.857Z,84.71
2023-03-31T18:53:13.349Z,83.75
2023-03-31T18:55:59.676Z,83.54
2023-03-31T18:58:45.971Z,84.66
2023-03-31T19:01:31.700Z,83.77
2023-03-31T19:04:16.904Z,83.21
2023-03-31T19:07:02.855Z,83.21
2023-03-31T19:09:48.145Z,83.54
2023-03-31T19:12:33.547Z,83.72
2023-03-31T19:15:19.152Z,83.97
2023-03-31T19:18:04.748Z,83.38
2023-03-31T19:20:50.279Z,84.31
2023-03-31T19:23:36.043Z,84.10
2023-03-31T19:26:22.538Z,84.29
2023-03-31T19:29:08.265Z,83.25
2023-03-31T19:31:55.923Z,84.07
2023-03-31T19:34:41.933Z,84.29
2023-03-31T19:37:27.509Z,83.98
2023-03-31T19:40:13.436Z,83.71
2023-03-31T19:42:59.743Z,83.76
2023-03-31T19:45:45.744Z,84.48
2023-03-31T19:48:31.477Z,84.40
2023-03-31T19:51:17.434Z,83.33
2023-03-31T19:54:02.972Z,85.29
2023-03-31T19:56:48.178Z,85.99
2023-03-31T19:59:33.575Z,85.53
2023-03-31T20:02:19.394Z,85.64
2023-03-31T20:05:05.717Z,85.48
2023-03-31T20:07:51.123Z,84.85
2023-03-31T20:10:36.646Z,85.27
2023-03-31T20:13:24.630Z,86.14
2023-03-31T20:16:22.120Z,85.45
2023-03-31T20:19:08.072Z,84.94
2023-03-31T20:21:53.645Z,85.97
2023-03-31T20:24:39.152Z,86.62
2023-03-31T20:27:24.280Z,87.16
2023-03-31T20:30:10.204Z,86.16
2023-03-31T20:32:55.602Z,85.52
2023-03-31T20:35:40.732Z,85.78
2023-03-31T20:38:25.965Z,86.13
2023-03-31T20:41:11.893Z,85.09
2023-03-31T20:43:58.139Z,85.77
2023-03-31T20:46:44.471Z,84.81
2023-03-31T20:49:29.940Z,85.48
2023-03-31T20:52:15.532Z,84.82
2023-03-31T20:55:00.863Z,84.34
2023-03-31T20:57:46.789Z,84.08
2023-03-31T21:00:32.041Z,85.88
2023-03-31T21:03:17.244Z,85.16
2023-03-31T21:06:05.109Z,83.94
2023-03-31T21:08:53.758Z,83.90
2023-03-31T21:11:39.576Z,83.07
2023-03-31T21:14:25.124Z,82.45
2023-03-31T21:17:10.253Z,83.12
2023-03-31T21:19:55.712Z,84.58
2023-03-31T21:22:41.603Z,85.22
2023-03-31T21:25:28.151Z,84.27
2023-03-31T21:28:13.604Z,85.39
2023-03-31T21:31:13.301Z,85.69
2023-03-31T21:33:58.621Z,86.02
2023-03-31T21:36:44.170Z,87.55
2023-03-31T21:43:36.069Z,88.28
2023-03-31T21:46:27.516Z,88.66
2023-03-31T21:49:12.938Z,87.87
2023-03-31T21:51:57.999Z,86.93
2023-03-31T21:54:43.354Z,86.56
2023-03-31T21:57:28.479Z,87.28
2023-03-31T22:00:14.069Z,86.46
2023-03-31T22:03:16.423Z,86.45
2023-03-31T22:06:06.865Z,86.19
2023-03-31T22:08:52.257Z,86.59
2023-03-31T22:11:37.792Z,87.33
2023-03-31T22:14:23.096Z,88.10
2023-03-31T22:17:08.427Z,88.16
2023-03-31T22:19:54.475Z,88.12
2023-03-31T22:22:39.999Z,88.06
2023-03-31T22:25:25.371Z,87.31
2023-03-31T22:28:16.612Z,86.38
2023-03-31T22:31:02.138Z,85.66
2023-03-31T22:33:47.982Z,85.47
2023-03-31T22:36:33.279Z,85.44
2023-03-31T22:39:18.585Z,86.87
2023-03-31T22:42:03.816Z,87.22
2023-03-31T22:44:49.095Z,88.13
2023-03-31T22:47:34.404Z,88.44
2023-03-31T22:50:19.541Z,88.16
2023-03-31T22:53:04.988Z,88.00
2023-03-31T22:55:54.338Z,87.95
2023-03-31T22:58:40.101Z,87.17
2023-03-31T23:01:25.409Z,87.12
2023-03-31T23:04:10.851Z,88.14
2023-03-31T23:06:56.254Z,87.67
2023-03-31T23:09:41.529Z,87.12
2023-03-31T23:12:28.071Z,87.20
2023-03-31T23:15:13.391Z,88.13
2023-03-31T23:17:58.791Z,88.15
2023-03-31T23:20:43.946Z,86.97
2023-03-31T23:23:29.270Z,87.50
2023-03-31T23:26:14.677Z,88.29
2023-03-31T23:29:01.267Z,87.63
2023-03-31T23:31:46.593Z,86.57
2023-03-31T23:34:32.175Z,86.06
2023-03-31T23:37:17.424Z,85.41
2023-03-31T23:40:03.041Z,87.07
2023-03-31T23:42:48.519Z,87.58
2023-03-31T23:45:34.207Z,87.19
2023-03-31T23:48:19.535Z,86.11
2023-03-31T23:51:07.582Z,86.68
2023-03-31T23:53:53.034Z,86.55
2023-03-31T23:56:38.252Z,86.70
2023-03-31T23:59:23.416Z,86.46
